Stations météo

réclame
Mon MeteoGroup
Lycksele, Suède (2262): Température de l'air & dewpoint: 15.01.2018 13:00:00 - 21.01.2018 13:00:00 (CET)Lycksele, Suède (2262): Vitesse du vent: 15.01.2018 13:00:00 - 21.01.2018 13:00:00 (CET)Lycksele, Suède (2262): Direction du vent: 15.01.2018 13:00:00 - 21.01.2018 13:00:00 (CET)Lycksele, Suède (2262): visibility: 15.01.2018 13:00:00 - 21.01.2018 13:00:00 (CET)
Date & Time tt [°C] td [°C] ff [km/h] ff [knt] dd vv [km]
21.01.2018 13:00:00 -10,0 -12,0 2 1 NW 10
21.01.2018 12:00:00 -10,0 -12,0 4 2 - 10
21.01.2018 11:00:00 -10,0 -12,0 2 1 NNW 10
21.01.2018 10:00:00 -10,0 -12,0 0 0 N 6
21.01.2018 09:00:00 -10,0 -12,0 0 0 N 10
21.01.2018 08:00:00 -10,0 -12,0 0 0 N 10
21.01.2018 07:00:00 -9,0 -12,0 0 0 N 10
21.01.2018 06:00:00 -9,0 -11,0 0 0 N 8
21.01.2018 05:00:00 -9,0 -11,0 0 0 N 10
21.01.2018 04:00:00 -9,0 -11,0 0 0 N 10
21.01.2018 03:00:00 -9,0 -11,0 0 0 N 5
21.01.2018 02:00:00 -9,0 -11,0 0 0 N 10
21.01.2018 01:00:00 -9,0 -11,0 0 0 N 3,3
21.01.2018 00:00:00 -9,0 -11,0 0 0 N 3,4
20.01.2018 23:00:00 -9,0 -11,0 0 0 N 2,3
20.01.2018 22:00:00 -9,0 -11,0 0 0 N 2,8
20.01.2018 21:00:00 -9,0 -11,0 0 0 N 3,0
20.01.2018 20:00:00 -9,0 -11,0 0 0 N 4,6
20.01.2018 19:00:00 -9,0 -11,0 0 0 N 4,7
20.01.2018 18:00:00 -9,0 -11,0 0 0 N 4,0
20.01.2018 17:00:00 -9,0 -11,0 0 0 N 2,1
20.01.2018 16:00:00 -9,0 -11,0 0 0 N 1,9
20.01.2018 15:00:00 -9,0 -11,0 0 0 N 10
20.01.2018 14:00:00 -9,0 -11,0 0 0 N 1,3
20.01.2018 13:00:00 -9,0 -12,0 0 0 N 2,7
20.01.2018 12:00:00 -10,0 -12,0 0 0 N 0,8
20.01.2018 11:00:00 -10,0 -12,0 0 0 N 3,0
20.01.2018 10:00:00 -11,0 -13,0 0 0 N 4,7
20.01.2018 09:00:00 -11,0 -13,0 0 0 N 4,1
20.01.2018 08:00:00 -11,0 -13,0 0 0 N 10
20.01.2018 07:00:00 -12,0 -14,0 0 0 N 1,3
20.01.2018 06:00:00 -12,0 -14,0 0 0 N 0,8
20.01.2018 05:00:00 -12,0 -14,0 0 0 N 1,8
20.01.2018 04:00:00 -12,0 -14,0 4 2 ESE 5
20.01.2018 03:00:00 -12,0 -14,0 2 1 ESE 1,4
20.01.2018 02:00:00 -12,0 -15,0 4 2 E 1,6
20.01.2018 01:00:00 -12,0 -14,0 2 1 SE 3,1
20.01.2018 00:00:00 -13,0 -15,0 2 1 E 2,2
19.01.2018 23:00:00 -14,0 -16,0 0 0 N 2,4
19.01.2018 22:00:00 -14,0 -16,0 0 0 N 2,4
19.01.2018 21:00:00 -14,0 -17,0 0 0 N 9
19.01.2018 20:00:00 -15,0 -18,0 0 0 N 2,3
19.01.2018 19:00:00 -15,0 -18,0 0 0 N 9
19.01.2018 18:00:00 -16,0 -18,0 0 0 N 9
19.01.2018 17:00:00 -18,0 -21,0 0 0 N 10
19.01.2018 16:00:00 - - - - - -
19.01.2018 15:00:00 -21,0 -25,0 0 0 N 10
19.01.2018 14:00:00 -19,0 -22,0 0 0 N 0,9
19.01.2018 13:00:00 -16,0 -19,0 0 0 N 5
19.01.2018 12:00:00 -15,0 -18,0 0 0 N 7
19.01.2018 11:00:00 -15,0 -17,0 0 0 N 5
19.01.2018 10:00:00 -16,0 -19,0 0 0 N 3,2
19.01.2018 09:00:00 -17,0 -19,0 0 0 N 7
19.01.2018 08:00:00 -16,0 -18,0 0 0 N 4,6
19.01.2018 07:00:00 -15,0 -18,0 0 0 N 6
19.01.2018 06:00:00 -15,0 -18,0 0 0 N 2,2
19.01.2018 05:00:00 -14,0 -16,0 0 0 N 2,3
19.01.2018 04:00:00 -14,0 -16,0 0 0 N 2,6
19.01.2018 03:00:00 -14,0 -16,0 0 0 N 2,0
19.01.2018 02:00:00 -14,0 -17,0 0 0 N 2,2
19.01.2018 01:00:00 -13,0 -16,0 0 0 N 4,1
19.01.2018 00:00:00 -13,0 -15,0 0 0 N 2,5
18.01.2018 23:00:00 -13,0 -15,0 0 0 N 5
18.01.2018 22:00:00 -13,0 -15,0 0 0 N 5
18.01.2018 21:00:00 - - - - - -
18.01.2018 20:00:00 - - - - - -
18.01.2018 19:00:00 -12,0 -14,0 0 0 N 2,4
18.01.2018 18:00:00 -12,0 -15,0 0 0 N 1,8
18.01.2018 17:00:00 - - - - - -
18.01.2018 16:00:00 - - - - - -
18.01.2018 15:00:00 -13,0 -15,0 0 0 N 1,9
18.01.2018 14:00:00 -13,0 -15,0 0 0 N 0,8
18.01.2018 13:00:00 -14,0 -16,0 0 0 N 0,6
18.01.2018 12:00:00 -16,0 -19,0 0 0 N 1,2
18.01.2018 11:00:00 - - - - - -
18.01.2018 10:00:00 -17,0 -20,0 0 0 N 3,3
18.01.2018 09:00:00 -14,0 -17,0 0 0 N 3,7
18.01.2018 08:00:00 -13,0 -16,0 0 0 N 2,0
18.01.2018 07:00:00 -14,0 -16,0 2 1 NNW 1,5
18.01.2018 06:00:00 -15,0 -17,0 0 0 N 2,3
18.01.2018 05:00:00 -16,0 -18,0 0 0 N 3,0
18.01.2018 04:00:00 -16,0 -18,0 0 0 N 1,9
18.01.2018 03:00:00 -17,0 -20,0 0 0 N 5
18.01.2018 02:00:00 -16,0 -19,0 0 0 N 3,5
18.01.2018 01:00:00 -16,0 -18,0 0 0 N 3,6
18.01.2018 00:00:00 -13,0 -15,0 0 0 N 1,5
17.01.2018 23:00:00 -13,0 -15,0 0 0 N 1,2
17.01.2018 22:00:00 -12,0 -14,0 2 1 - 0,6
17.01.2018 21:00:00 -11,0 -13,0 2 1 - 3,0
17.01.2018 20:00:00 -11,0 -13,0 2 1 SSE 1,7
17.01.2018 19:00:00 -10,0 -12,0 9 5 ESE 2,3
17.01.2018 18:00:00 -11,0 -13,0 9 5 ESE 7
17.01.2018 17:00:00 -9,0 -11,0 8 4 NE 3,2
17.01.2018 16:00:00 -10,0 -12,0 5 3 - 4,1
17.01.2018 15:00:00 -9,0 -12,0 8 4 ESE 4,0
17.01.2018 14:00:00 -9,0 -12,0 4 2 - 3,1
17.01.2018 13:00:00 -9,0 -12,0 13 7 ESE 10
17.01.2018 12:00:00 - - - - - -
17.01.2018 11:00:00 -9,0 -12,0 13 7 ESE 10
17.01.2018 10:00:00 -8,0 -12,0 21 11 E 10
17.01.2018 09:00:00 -8,0 -12,0 18 10 E 10
17.01.2018 08:00:00 -8,0 -11,0 11 6 SE 10
17.01.2018 07:00:00 -8,0 -11,0 15 8 ESE 10
17.01.2018 06:00:00 - - - - - -
17.01.2018 05:00:00 -8,0 -10,0 22 12 ESE 7
17.01.2018 04:00:00 -7,0 -10,0 22 12 ESE 10
17.01.2018 03:00:00 -7,0 -10,0 22 12 ESE 10
17.01.2018 02:00:00 -7,0 -10,0 18 10 ESE 10
17.01.2018 01:00:00 -8,0 -10,0 21 11 ESE 5
17.01.2018 00:00:00 -8,0 -10,0 21 11 ESE 10
16.01.2018 23:00:00 -8,0 -11,0 22 12 ESE 10
16.01.2018 22:00:00 -8,0 -10,0 24 13 ESE 7
16.01.2018 21:00:00 -8,0 -10,0 22 12 ESE 6
16.01.2018 20:00:00 -8,0 -10,0 24 13 ESE 7
16.01.2018 19:00:00 -8,0 -10,0 31 17 ESE 4,2
16.01.2018 18:00:00 -8,0 -10,0 34 18 ESE 4,0
16.01.2018 17:00:00 -7,0 -9,0 34 18 ESE 4,9
16.01.2018 16:00:00 -7,0 -9,0 31 17 ESE 1,6
16.01.2018 15:00:00 -7,0 -9,0 29 16 ESE 1,3
16.01.2018 14:00:00 -6,0 -8,0 26 14 ESE 1,5
16.01.2018 13:00:00 -6,0 -8,0 28 15 ESE 3,0
16.01.2018 12:00:00 - - - - - -
16.01.2018 11:00:00 - - - - - -
16.01.2018 10:00:00 -4,0 -6,0 31 17 SE 6
16.01.2018 09:00:00 -4,0 -6,0 31 17 ESE 5
16.01.2018 08:00:00 -3,0 -6,0 31 17 SE 4,6
16.01.2018 07:00:00 - - - - - -
16.01.2018 06:00:00 -3,0 -6,0 31 17 SE 6
16.01.2018 05:00:00 -3,0 -6,0 34 18 SE 6
16.01.2018 04:00:00 -3,0 -5,0 35 19 SE 5
16.01.2018 03:00:00 -2,0 -5,0 29 16 SE 10
16.01.2018 02:00:00 -2,0 -6,0 31 17 SSE 5
16.01.2018 01:00:00 -2,0 -6,0 34 18 SE 10
16.01.2018 00:00:00 -2,0 -6,0 34 18 SE 10
15.01.2018 23:00:00 -2,0 -5,0 31 17 SE 10
15.01.2018 22:00:00 -2,0 -6,0 26 14 SSE 10
15.01.2018 21:00:00 -2,0 -6,0 29 16 SSE 10
15.01.2018 20:00:00 -2,0 -6,0 29 16 SSE 6
15.01.2018 19:00:00 -2,0 -6,0 28 15 SE 10
15.01.2018 18:00:00 -2,0 -6,0 29 16 SE 10
15.01.2018 17:00:00 - - - - - -
15.01.2018 16:00:00 - - - - - -
15.01.2018 15:00:00 -2,0 -6,0 26 14 SSE 10
15.01.2018 14:00:00 -2,0 -6,0 24 13 SE 10
15.01.2018 13:00:00 -2,0 -6,0 24 13 SSE 10

tt = Température de l'air
td = dewpoint
ff = Vitesse du vent
dd = Direction du vent
vv = visibility

stations d'obs. à proximité